Burke, Kentucky
Current Conditions -  °F | °C
As of 3:30 PM on Saturday 25 Oct 2014 (Local Time) from KSYM Reporting Station
Overcast Overcast  
Wind Chill: 66°   Ceiling: 2300
Heat Index: 66°   Visibility: 10mi
Dew Point: 54°   Wind: 9mph
Humidity: 64%   Direction: 250°WSW
Pressure: 29.98"   Gusts: NA
Location:  38.1397°N, 83.158°W
Report Text: KSYM 251930Z AUTO 25008KT 10SM OVC023 19/12 A2998 RMK AO2
Loading
Personal Weather Stations






























Interactive Weather Map
Tropical Storm Tracking
New forecast layout! Learn more

10-Day Weather Forecast

Advertisements
Track Severe Weather on mobile